Archer, Illinois
Current Conditions -  °F | °C
As of 11:52 PM on Tuesday 27 Jan 2015 (Local Time) from KSPI Reporting Station
Clear Clear  
Wind Chill: 20°   Ceiling: Unl
Heat Index: 27°   Visibility: 10mi
Dew Point: 23°   Wind: 6mph
Humidity: 85%   Direction: 140°SE
Pressure: 30.26"   Gusts: NA
Location:  39.854°N, 89.6295°W
Report Text: KSPI 280552Z AUTO 14005KT 10SM CLR M03/M05 A3026 RMK AO2 SLP253 T10281050 10000 21028 400221028 50005
Loading
Personal Weather Stations






























Interactive Weather Map New forecast layout! Learn more

10-Day Weather Forecast

Advertisements
Track Severe Weather on mobile